sensor_id;sensor_type;location;lat;lon;timestamp;temperature;humidity
33109;HTU21D;19481;51.118;6.940;2023-06-10T00:03:01;21.82;38.30
33109;HTU21D;19481;51.118;6.940;2023-06-10T00:08:04;21.88;38.25
33109;HTU21D;19481;51.118;6.940;2023-06-10T00:13:09;21.88;38.38
33109;HTU21D;19481;51.118;6.940;2023-06-10T00:18:11;21.83;38.51
33109;HTU21D;19481;51.118;6.940;2023-06-10T00:23:13;21.84;38.44
33109;HTU21D;19481;51.118;6.940;2023-06-10T00:28:16;21.76;38.71
33109;HTU21D;19481;51.118;6.940;2023-06-10T00:33:17;21.69;38.82
33109;HTU21D;19481;51.118;6.940;2023-06-10T00:38:19;21.57;39.10
33109;HTU21D;19481;51.118;6.940;2023-06-10T00:43:22;21.52;39.27
33109;HTU21D;19481;51.118;6.940;2023-06-10T00:48:24;21.40;39.47
33109;HTU21D;19481;51.118;6.940;2023-06-10T00:53:26;21.17;40.10
33109;HTU21D;19481;51.118;6.940;2023-06-10T00:58:30;20.72;41.20
33109;HTU21D;19481;51.118;6.940;2023-06-10T01:03:32;20.55;41.49
33109;HTU21D;19481;51.118;6.940;2023-06-10T01:08:41;20.27;42.23
33109;HTU21D;19481;51.118;6.940;2023-06-10T01:13:49;20.10;42.43
33109;HTU21D;19481;51.118;6.940;2023-06-10T01:18:52;19.95;42.58
33109;HTU21D;19481;51.118;6.940;2023-06-10T01:23:56;19.77;42.93
33109;HTU21D;19481;51.118;6.940;2023-06-10T01:29:00;19.57;43.43
33109;HTU21D;19481;51.118;6.940;2023-06-10T01:34:08;19.40;43.70
33109;HTU21D;19481;51.118;6.940;2023-06-10T01:39:12;19.28;43.73
33109;HTU21D;19481;51.118;6.940;2023-06-10T01:44:17;19.17;44.18
33109;HTU21D;19481;51.118;6.940;2023-06-10T01:49:19;18.97;44.41
33109;HTU21D;19481;51.118;6.940;2023-06-10T01:54:23;18.91;44.56
33109;HTU21D;19481;51.118;6.940;2023-06-10T01:59:25;18.78;44.73
33109;HTU21D;19481;51.118;6.940;2023-06-10T02:04:26;18.68;44.89
33109;HTU21D;19481;51.118;6.940;2023-06-10T02:09:29;18.57;45.16
33109;HTU21D;19481;51.118;6.940;2023-06-10T02:14:32;18.51;45.33
33109;HTU21D;19481;51.118;6.940;2023-06-10T02:19:34;18.41;45.50
33109;HTU21D;19481;51.118;6.940;2023-06-10T02:24:38;18.20;46.12
33109;HTU21D;19481;51.118;6.940;2023-06-10T02:29:40;18.18;46.05
33109;HTU21D;19481;51.118;6.940;2023-06-10T02:34:42;18.00;46.50
33109;HTU21D;19481;51.118;6.940;2023-06-10T02:39:45;17.95;46.77
33109;HTU21D;19481;51.118;6.940;2023-06-10T02:44:46;17.97;46.64
33109;HTU21D;19481;51.118;6.940;2023-06-10T02:49:48;17.90;46.77
33109;HTU21D;19481;51.118;6.940;2023-06-10T02:54:51;17.75;47.56
33109;HTU21D;19481;51.118;6.940;2023-06-10T02:59:53;17.78;47.13
33109;HTU21D;19481;51.118;6.940;2023-06-10T03:04:55;17.62;47.60
33109;HTU21D;19481;51.118;6.940;2023-06-10T03:09:58;17.54;47.86
33109;HTU21D;19481;51.118;6.940;2023-06-10T03:14:59;17.56;47.67
33109;HTU21D;19481;51.118;6.940;2023-06-10T03:20:01;17.48;47.95
33109;HTU21D;19481;51.118;6.940;2023-06-10T03:25:05;17.41;48.29
33109;HTU21D;19481;51.118;6.940;2023-06-10T03:30:09;17.32;48.55
33109;HTU21D;19481;51.118;6.940;2023-06-10T03:35:11;17.31;48.51
33109;HTU21D;19481;51.118;6.940;2023-06-10T03:40:14;17.33;48.51
33109;HTU21D;19481;51.118;6.940;2023-06-10T03:45:15;17.20;48.89
33109;HTU21D;19481;51.118;6.940;2023-06-10T03:50:18;17.24;48.83
33109;HTU21D;19481;51.118;6.940;2023-06-10T03:55:21;17.33;48.70
33109;HTU21D;19481;51.118;6.940;2023-06-10T04:00:23;17.39;48.70
33109;HTU21D;19481;51.118;6.940;2023-06-10T04:05:25;17.34;48.82
33109;HTU21D;19481;51.118;6.940;2023-06-10T04:10:30;17.35;49.13
33109;HTU21D;19481;51.118;6.940;2023-06-10T04:15:32;17.36;49.14
33109;HTU21D;19481;51.118;6.940;2023-06-10T04:20:34;17.46;49.17
33109;HTU21D;19481;51.118;6.940;2023-06-10T04:25:36;17.67;48.77
33109;HTU21D;19481;51.118;6.940;2023-06-10T04:30:38;17.87;48.49
33109;HTU21D;19481;51.118;6.940;2023-06-10T04:35:40;18.27;47.89
33109;HTU21D;19481;51.118;6.940;2023-06-10T04:40:42;18.77;47.40
33109;HTU21D;19481;51.118;6.940;2023-06-10T04:45:44;20.40;43.91
33109;HTU21D;19481;51.118;6.940;2023-06-10T04:50:46;21.95;40.91
33109;HTU21D;19481;51.118;6.940;2023-06-10T04:55:49;22.79;39.97
33109;HTU21D;19481;51.118;6.940;2023-06-10T05:00:50;23.59;39.07
33109;HTU21D;19481;51.118;6.940;2023-06-10T05:05:52;23.81;39.76
33109;HTU21D;19481;51.118;6.940;2023-06-10T05:10:55;24.53;39.42
33109;HTU21D;19481;51.118;6.940;2023-06-10T05:15:57;24.91;39.88
33109;HTU21D;19481;51.118;6.940;2023-06-10T05:20:58;23.01;45.16
33109;HTU21D;19481;51.118;6.940;2023-06-10T05:26:02;23.46;44.38
33109;HTU21D;19481;51.118;6.940;2023-06-10T05:31:03;25.84;39.04
33109;HTU21D;19481;51.118;6.940;2023-06-10T05:36:05;26.76;37.97
33109;HTU21D;19481;51.118;6.940;2023-06-10T05:41:08;27.66;37.00
33109;HTU21D;19481;51.118;6.940;2023-06-10T05:46:10;27.84;37.62
33109;HTU21D;19481;51.118;6.940;2023-06-10T05:51:11;28.40;37.35
33109;HTU21D;19481;51.118;6.940;2023-06-10T05:56:14;29.53;35.63
33109;HTU21D;19481;51.118;6.940;2023-06-10T06:01:16;29.89;35.56
33109;HTU21D;19481;51.118;6.940;2023-06-10T06:06:18;30.12;35.47
33109;HTU21D;19481;51.118;6.940;2023-06-10T06:11:22;30.42;35.20
33109;HTU21D;19481;51.118;6.940;2023-06-10T06:16:24;31.04;34.35
33109;HTU21D;19481;51.118;6.940;2023-06-10T06:21:26;31.01;35.00
33109;HTU21D;19481;51.118;6.940;2023-06-10T06:26:29;31.24;34.69
33109;HTU21D;19481;51.118;6.940;2023-06-10T06:31:31;31.09;35.18
33109;HTU21D;19481;51.118;6.940;2023-06-10T06:36:32;31.41;34.43
33109;HTU21D;19481;51.118;6.940;2023-06-10T06:41:35;32.11;33.37
33109;HTU21D;19481;51.118;6.940;2023-06-10T06:46:37;32.01;33.96
33109;HTU21D;19481;51.118;6.940;2023-06-10T06:51:38;32.12;33.81
33109;HTU21D;19481;51.118;6.940;2023-06-10T06:56:41;33.04;29.78
33109;HTU21D;19481;51.118;6.940;2023-06-10T07:01:43;32.63;32.41
33109;HTU21D;19481;51.118;6.940;2023-06-10T07:06:44;33.00;31.63
33109;HTU21D;19481;51.118;6.940;2023-06-10T07:11:47;33.47;30.72
33109;HTU21D;19481;51.118;6.940;2023-06-10T07:16:49;33.00;31.96
33109;HTU21D;19481;51.118;6.940;2023-06-10T07:21:51;33.36;30.86
33109;HTU21D;19481;51.118;6.940;2023-06-10T07:26:53;33.66;29.53
33109;HTU21D;19481;51.118;6.940;2023-06-10T07:31:55;34.33;29.01
33109;HTU21D;19481;51.118;6.940;2023-06-10T07:36:57;35.47;27.37
33109;HTU21D;19481;51.118;6.940;2023-06-10T07:42:00;34.23;30.00
33109;HTU21D;19481;51.118;6.940;2023-06-10T07:47:01;33.93;30.35
33109;HTU21D;19481;51.118;6.940;2023-06-10T07:52:03;33.80;30.33
33109;HTU21D;19481;51.118;6.940;2023-06-10T07:57:07;34.67;28.47
33109;HTU21D;19481;51.118;6.940;2023-06-10T08:02:08;34.53;28.97
33109;HTU21D;19481;51.118;6.940;2023-06-10T08:07:10;34.51;28.77
33109;HTU21D;19481;51.118;6.940;2023-06-10T08:12:13;34.07;28.72
33109;HTU21D;19481;51.118;6.940;2023-06-10T08:17:15;34.79;27.33
33109;HTU21D;19481;51.118;6.940;2023-06-10T08:22:17;35.44;26.31
33109;HTU21D;19481;51.118;6.940;2023-06-10T08:27:20;34.71;27.50
33109;HTU21D;19481;51.118;6.940;2023-06-10T08:32:21;35.29;26.36
33109;HTU21D;19481;51.118;6.940;2023-06-10T08:37:24;36.16;24.99
33109;HTU21D;19481;51.118;6.940;2023-06-10T08:42:28;35.56;24.43
33109;HTU21D;19481;51.118;6.940;2023-06-10T08:47:35;35.44;26.46
33109;HTU21D;19481;51.118;6.940;2023-06-10T08:52:37;35.98;25.29
33109;HTU21D;19481;51.118;6.940;2023-06-10T08:57:41;35.88;25.27
33109;HTU21D;19481;51.118;6.940;2023-06-10T09:02:43;35.62;25.71
33109;HTU21D;19481;51.118;6.940;2023-06-10T09:07:46;35.96;25.01
33109;HTU21D;19481;51.118;6.940;2023-06-10T09:12:50;35.96;23.95
33109;HTU21D;19481;51.118;6.940;2023-06-10T09:17:51;35.41;25.79
33109;HTU21D;19481;51.118;6.940;2023-06-10T09:22:53;35.23;25.60
33109;HTU21D;19481;51.118;6.940;2023-06-10T09:27:56;35.60;24.90
33109;HTU21D;19481;51.118;6.940;2023-06-10T09:33:01;35.42;24.54
33109;HTU21D;19481;51.118;6.940;2023-06-10T09:38:03;35.83;24.49
33109;HTU21D;19481;51.118;6.940;2023-06-10T09:43:06;35.56;24.95
33109;HTU21D;19481;51.118;6.940;2023-06-10T09:48:08;35.77;24.61
33109;HTU21D;19481;51.118;6.940;2023-06-10T09:53:10;33.48;28.15
33109;HTU21D;19481;51.118;6.940;2023-06-10T09:58:13;34.30;25.74
33109;HTU21D;19481;51.118;6.940;2023-06-10T10:03:22;32.99;25.49
33109;HTU21D;19481;51.118;6.940;2023-06-10T10:08:24;32.08;28.38
33109;HTU21D;19481;51.118;6.940;2023-06-10T10:13:28;32.74;26.14
33109;HTU21D;19481;51.118;6.940;2023-06-10T10:18:31;32.70;26.52
33109;HTU21D;19481;51.118;6.940;2023-06-10T10:23:39;31.90;26.98
33109;HTU21D;19481;51.118;6.940;2023-06-10T10:28:47;31.37;27.62
33109;HTU21D;19481;51.118;6.940;2023-06-10T10:33:54;31.59;26.90
33109;HTU21D;19481;51.118;6.940;2023-06-10T10:38:57;30.97;27.95
33109;HTU21D;19481;51.118;6.940;2023-06-10T10:44:04;32.37;25.88
33109;HTU21D;19481;51.118;6.940;2023-06-10T10:49:09;31.75;26.91
33109;HTU21D;19481;51.118;6.940;2023-06-10T10:54:12;31.14;27.82
33109;HTU21D;19481;51.118;6.940;2023-06-10T10:59:16;31.37;27.24
33109;HTU21D;19481;51.118;6.940;2023-06-10T11:04:20;31.30;27.45
33109;HTU21D;19481;51.118;6.940;2023-06-10T11:09:26;30.84;28.48
33109;HTU21D;19481;51.118;6.940;2023-06-10T11:14:30;30.51;28.63
33109;HTU21D;19481;51.118;6.940;2023-06-10T11:19:32;30.39;28.17
33109;HTU21D;19481;51.118;6.940;2023-06-10T11:24:34;30.15;28.26
33109;HTU21D;19481;51.118;6.940;2023-06-10T11:29:37;29.96;28.10
33109;HTU21D;19481;51.118;6.940;2023-06-10T11:34:39;30.18;27.17
33109;HTU21D;19481;51.118;6.940;2023-06-10T11:39:41;30.34;26.63
33109;HTU21D;19481;51.118;6.940;2023-06-10T11:44:49;31.53;22.31
33109;HTU21D;19481;51.118;6.940;2023-06-10T11:49:56;31.72;24.31
33109;HTU21D;19481;51.118;6.940;2023-06-10T11:54:58;30.70;26.37
33109;HTU21D;19481;51.118;6.940;2023-06-10T12:00:05;30.38;25.64
33109;HTU21D;19481;51.118;6.940;2023-06-10T12:05:11;30.06;26.69
33109;HTU21D;19481;51.118;6.940;2023-06-10T12:10:13;30.18;26.58
33109;HTU21D;19481;51.118;6.940;2023-06-10T12:15:24;30.99;25.65
33109;HTU21D;19481;51.118;6.940;2023-06-10T12:20:28;31.37;25.20
33109;HTU21D;19481;51.118;6.940;2023-06-10T12:25:30;30.91;26.39
33109;HTU21D;19481;51.118;6.940;2023-06-10T12:30:33;30.57;26.92
33109;HTU21D;19481;51.118;6.940;2023-06-10T12:35:47;30.54;26.59
33109;HTU21D;19481;51.118;6.940;2023-06-10T12:40:50;30.04;27.53
33109;HTU21D;19481;51.118;6.940;2023-06-10T12:45:53;30.10;27.13
33109;HTU21D;19481;51.118;6.940;2023-06-10T12:50:57;30.02;26.98
33109;HTU21D;19481;51.118;6.940;2023-06-10T12:55:59;29.89;27.02
33109;HTU21D;19481;51.118;6.940;2023-06-10T13:01:03;30.01;26.62
33109;HTU21D;19481;51.118;6.940;2023-06-10T13:06:05;30.12;26.36
33109;HTU21D;19481;51.118;6.940;2023-06-10T13:11:07;31.55;23.87
33109;HTU21D;19481;51.118;6.940;2023-06-10T13:16:10;32.20;23.04
33109;HTU21D;19481;51.118;6.940;2023-06-10T13:21:12;31.99;23.50
33109;HTU21D;19481;51.118;6.940;2023-06-10T13:26:13;32.08;23.37
33109;HTU21D;19481;51.118;6.940;2023-06-10T13:31:18;33.42;20.12
33109;HTU21D;19481;51.118;6.940;2023-06-10T13:36:21;33.61;20.89
33109;HTU21D;19481;51.118;6.940;2023-06-10T13:41:22;32.71;22.94
33109;HTU21D;19481;51.118;6.940;2023-06-10T13:46:26;32.14;23.85
33109;HTU21D;19481;51.118;6.940;2023-06-10T13:51:27;31.51;24.85
33109;HTU21D;19481;51.118;6.940;2023-06-10T13:56:29;31.21;25.17
33109;HTU21D;19481;51.118;6.940;2023-06-10T14:01:33;31.07;25.04
33109;HTU21D;19481;51.118;6.940;2023-06-10T14:06:34;30.86;25.06
33109;HTU21D;19481;51.118;6.940;2023-06-10T14:11:36;30.86;24.61
33109;HTU21D;19481;51.118;6.940;2023-06-10T14:16:39;30.69;24.85
33109;HTU21D;19481;51.118;6.940;2023-06-10T14:21:40;30.41;25.47
33109;HTU21D;19481;51.118;6.940;2023-06-10T14:26:42;30.52;25.30
33109;HTU21D;19481;51.118;6.940;2023-06-10T14:31:45;30.60;25.26
33109;HTU21D;19481;51.118;6.940;2023-06-10T14:36:46;31.14;24.51
33109;HTU21D;19481;51.118;6.940;2023-06-10T14:41:48;31.16;24.76
33109;HTU21D;19481;51.118;6.940;2023-06-10T14:46:51;31.81;23.90
33109;HTU21D;19481;51.118;6.940;2023-06-10T14:51:52;31.27;24.94
33109;HTU21D;19481;51.118;6.940;2023-06-10T14:56:54;31.50;24.53
33109;HTU21D;19481;51.118;6.940;2023-06-10T15:01:57;31.43;24.43
33109;HTU21D;19481;51.118;6.940;2023-06-10T15:07:00;31.65;23.85
33109;HTU21D;19481;51.118;6.940;2023-06-10T15:12:02;31.70;23.72
33109;HTU21D;19481;51.118;6.940;2023-06-10T15:17:07;32.25;22.95
33109;HTU21D;19481;51.118;6.940;2023-06-10T15:22:08;32.02;23.70
33109;HTU21D;19481;51.118;6.940;2023-06-10T15:27:12;31.58;24.43
33109;HTU21D;19481;51.118;6.940;2023-06-10T15:32:15;31.41;24.47
33109;HTU21D;19481;51.118;6.940;2023-06-10T15:37:16;30.93;24.53
33109;HTU21D;19481;51.118;6.940;2023-06-10T15:42:18;30.70;24.31
33109;HTU21D;19481;51.118;6.940;2023-06-10T15:47:21;30.32;23.88
33109;HTU21D;19481;51.118;6.940;2023-06-10T15:52:22;30.05;23.72
33109;HTU21D;19481;51.118;6.940;2023-06-10T15:57:24;29.89;23.46
33109;HTU21D;19481;51.118;6.940;2023-06-10T16:02:27;29.83;22.95
33109;HTU21D;19481;51.118;6.940;2023-06-10T16:07:29;29.98;22.85
33109;HTU21D;19481;51.118;6.940;2023-06-10T16:12:30;30.37;22.32
33109;HTU21D;19481;51.118;6.940;2023-06-10T16:17:33;30.52;21.38
33109;HTU21D;19481;51.118;6.940;2023-06-10T16:22:35;30.52;21.99
33109;HTU21D;19481;51.118;6.940;2023-06-10T16:27:36;30.59;21.86
33109;HTU21D;19481;51.118;6.940;2023-06-10T16:32:39;30.52;21.68
33109;HTU21D;19481;51.118;6.940;2023-06-10T16:37:41;30.42;21.76
33109;HTU21D;19481;51.118;6.940;2023-06-10T16:42:43;30.52;21.53
33109;HTU21D;19481;51.118;6.940;2023-06-10T16:47:46;30.50;21.26
33109;HTU21D;19481;51.118;6.940;2023-06-10T16:52:48;30.49;21.27
33109;HTU21D;19481;51.118;6.940;2023-06-10T16:57:50;30.52;21.27
33109;HTU21D;19481;51.118;6.940;2023-06-10T17:02:53;30.51;21.29
33109;HTU21D;19481;51.118;6.940;2023-06-10T17:07:54;30.47;21.45
33109;HTU21D;19481;51.118;6.940;2023-06-10T17:12:56;30.42;21.41
33109;HTU21D;19481;51.118;6.940;2023-06-10T17:17:59;30.35;21.31
33109;HTU21D;19481;51.118;6.940;2023-06-10T17:23:00;30.24;21.59
33109;HTU21D;19481;51.118;6.940;2023-06-10T17:28:02;30.07;21.85
33109;HTU21D;19481;51.118;6.940;2023-06-10T17:33:05;29.97;21.76
33109;HTU21D;19481;51.118;6.940;2023-06-10T17:38:07;29.86;22.07
33109;HTU21D;19481;51.118;6.940;2023-06-10T17:43:08;29.68;22.32
33109;HTU21D;19481;51.118;6.940;2023-06-10T17:48:11;29.31;22.76
33109;HTU21D;19481;51.118;6.940;2023-06-10T17:53:13;29.08;23.01
33109;HTU21D;19481;51.118;6.940;2023-06-10T17:58:14;29.07;22.92
33109;HTU21D;19481;51.118;6.940;2023-06-10T18:03:17;29.06;22.89
33109;HTU21D;19481;51.118;6.940;2023-06-10T18:08:26;28.98;23.03
33109;HTU21D;19481;51.118;6.940;2023-06-10T18:13:28;28.88;23.21
33109;HTU21D;19481;51.118;6.940;2023-06-10T18:18:31;28.73;23.56
33109;HTU21D;19481;51.118;6.940;2023-06-10T18:23:33;28.77;23.40
33109;HTU21D;19481;51.118;6.940;2023-06-10T18:28:34;28.64;23.60
33109;HTU21D;19481;51.118;6.940;2023-06-10T18:33:37;28.58;23.68
33109;HTU21D;19481;51.118;6.940;2023-06-10T18:38:39;28.47;23.82
33109;HTU21D;19481;51.118;6.940;2023-06-10T18:43:40;28.20;24.31
33109;HTU21D;19481;51.118;6.940;2023-06-10T18:48:43;28.05;24.57
33109;HTU21D;19481;51.118;6.940;2023-06-10T18:53:47;27.95;24.61
33109;HTU21D;19481;51.118;6.940;2023-06-10T18:58:49;27.79;24.75
33109;HTU21D;19481;51.118;6.940;2023-06-10T19:03:52;27.59;25.03
33109;HTU21D;19481;51.118;6.940;2023-06-10T19:08:54;27.49;25.08
33109;HTU21D;19481;51.118;6.940;2023-06-10T19:13:55;27.25;25.49
33109;HTU21D;19481;51.118;6.940;2023-06-10T19:18:58;27.12;25.65
33109;HTU21D;19481;51.118;6.940;2023-06-10T19:24:00;26.83;26.20
33109;HTU21D;19481;51.118;6.940;2023-06-10T19:29:01;26.38;27.19
33109;HTU21D;19481;51.118;6.940;2023-06-10T19:34:04;26.10;27.81
33109;HTU21D;19481;51.118;6.940;2023-06-10T19:39:06;25.76;28.27
33109;HTU21D;19481;51.118;6.940;2023-06-10T19:44:08;25.60;28.45
33109;HTU21D;19481;51.118;6.940;2023-06-10T19:49:11;25.46;28.68
33109;HTU21D;19481;51.118;6.940;2023-06-10T19:54:12;25.43;28.77
33109;HTU21D;19481;51.118;6.940;2023-06-10T19:59:14;25.27;29.19
33109;HTU21D;19481;51.118;6.940;2023-06-10T20:04:17;25.14;29.64
33109;HTU21D;19481;51.118;6.940;2023-06-10T20:09:18;25.06;29.83
33109;HTU21D;19481;51.118;6.940;2023-06-10T20:14:20;24.95;30.12
33109;HTU21D;19481;51.118;6.940;2023-06-10T20:19:23;24.72;30.88
33109;HTU21D;19481;51.118;6.940;2023-06-10T20:24:25;24.86;30.45
33109;HTU21D;19481;51.118;6.940;2023-06-10T20:29:26;24.87;30.51
33109;HTU21D;19481;51.118;6.940;2023-06-10T20:34:29;24.80;30.90
33109;HTU21D;19481;51.118;6.940;2023-06-10T20:39:31;24.62;31.22
33109;HTU21D;19481;51.118;6.940;2023-06-10T20:44:32;24.51;31.49
33109;HTU21D;19481;51.118;6.940;2023-06-10T20:49:35;24.35;31.96
33109;HTU21D;19481;51.118;6.940;2023-06-10T20:54:37;24.20;32.13
33109;HTU21D;19481;51.118;6.940;2023-06-10T20:59:38;24.21;32.13
33109;HTU21D;19481;51.118;6.940;2023-06-10T21:04:42;24.20;32.24
33109;HTU21D;19481;51.118;6.940;2023-06-10T21:09:43;24.05;32.50
33109;HTU21D;19481;51.118;6.940;2023-06-10T21:14:45;24.04;32.48
33109;HTU21D;19481;51.118;6.940;2023-06-10T21:19:48;23.97;32.78
33109;HTU21D;19481;51.118;6.940;2023-06-10T21:24:49;23.89;32.94
33109;HTU21D;19481;51.118;6.940;2023-06-10T21:29:51;23.69;33.41
33109;HTU21D;19481;51.118;6.940;2023-06-10T21:34:54;23.67;33.55
33109;HTU21D;19481;51.118;6.940;2023-06-10T21:39:56;23.56;33.73
33109;HTU21D;19481;51.118;6.940;2023-06-10T21:44:57;23.52;33.84
33109;HTU21D;19481;51.118;6.940;2023-06-10T21:50:00;23.50;34.00
33109;HTU21D;19481;51.118;6.940;2023-06-10T21:55:02;23.40;34.14
33109;HTU21D;19481;51.118;6.940;2023-06-10T22:00:05;23.29;34.44
33109;HTU21D;19481;51.118;6.940;2023-06-10T22:05:12;23.15;35.00
33109;HTU21D;19481;51.118;6.940;2023-06-10T22:10:14;23.07;34.86
33109;HTU21D;19481;51.118;6.940;2023-06-10T22:15:16;23.01;35.02
33109;HTU21D;19481;51.118;6.940;2023-06-10T22:20:19;22.98;35.12
33109;HTU21D;19481;51.118;6.940;2023-06-10T22:25:20;22.92;35.26
33109;HTU21D;19481;51.118;6.940;2023-06-10T22:30:22;22.84;35.41
33109;HTU21D;19481;51.118;6.940;2023-06-10T22:35:25;22.84;35.48
33109;HTU21D;19481;51.118;6.940;2023-06-10T22:40:26;22.81;35.53
33109;HTU21D;19481;51.118;6.940;2023-06-10T22:45:28;22.79;35.62
33109;HTU21D;19481;51.118;6.940;2023-06-10T22:50:31;22.69;35.90
33109;HTU21D;19481;51.118;6.940;2023-06-10T22:55:32;22.65;35.97
33109;HTU21D;19481;51.118;6.940;2023-06-10T23:00:34;22.60;36.14
33109;HTU21D;19481;51.118;6.940;2023-06-10T23:05:37;22.51;36.43
33109;HTU21D;19481;51.118;6.940;2023-06-10T23:10:38;22.40;36.64
33109;HTU21D;19481;51.118;6.940;2023-06-10T23:15:40;22.37;36.76
33109;HTU21D;19481;51.118;6.940;2023-06-10T23:20:43;22.25;37.14
33109;HTU21D;19481;51.118;6.940;2023-06-10T23:25:45;22.24;37.05
33109;HTU21D;19481;51.118;6.940;2023-06-10T23:30:46;22.23;37.15
33109;HTU21D;19481;51.118;6.940;2023-06-10T23:35:49;22.20;37.30
33109;HTU21D;19481;51.118;6.940;2023-06-10T23:40:51;22.13;37.40
33109;HTU21D;19481;51.118;6.940;2023-06-10T23:45:52;22.27;37.24
33109;HTU21D;19481;51.118;6.940;2023-06-10T23:50:55;22.21;37.60
33109;HTU21D;19481;51.118;6.940;2023-06-10T23:56:00;22.21;37.46
